sensor_id;sensor_type;location;lat;lon;timestamp;temperature;humidity
76789;DHT22;65740;52.464;13.446;2023-05-07T00:01:48;18.50;40.80
76789;DHT22;65740;52.464;13.446;2023-05-07T00:04:14;18.50;41.50
76789;DHT22;65740;52.464;13.446;2023-05-07T00:06:40;18.40;40.80
76789;DHT22;65740;52.464;13.446;2023-05-07T00:09:06;18.40;40.80
76789;DHT22;65740;52.464;13.446;2023-05-07T00:11:32;18.40;40.80
76789;DHT22;65740;52.464;13.446;2023-05-07T00:13:58;18.40;40.80
76789;DHT22;65740;52.464;13.446;2023-05-07T00:16:24;18.40;40.90
76789;DHT22;65740;52.464;13.446;2023-05-07T00:18:50;18.40;40.90
76789;DHT22;65740;52.464;13.446;2023-05-07T00:21:16;18.40;40.90
76789;DHT22;65740;52.464;13.446;2023-05-07T00:23:41;18.30;40.80
76789;DHT22;65740;52.464;13.446;2023-05-07T00:26:07;18.30;40.80
76789;DHT22;65740;52.464;13.446;2023-05-07T00:28:32;18.30;40.80
76789;DHT22;65740;52.464;13.446;2023-05-07T00:30:58;18.30;40.90
76789;DHT22;65740;52.464;13.446;2023-05-07T00:33:24;18.30;40.90
76789;DHT22;65740;52.464;13.446;2023-05-07T00:35:52;18.30;40.80
76789;DHT22;65740;52.464;13.446;2023-05-07T00:38:17;18.30;40.80
76789;DHT22;65740;52.464;13.446;2023-05-07T00:40:43;18.30;40.90
76789;DHT22;65740;52.464;13.446;2023-05-07T00:43:08;18.30;40.90
76789;DHT22;65740;52.464;13.446;2023-05-07T00:45:34;18.30;40.90
76789;DHT22;65740;52.464;13.446;2023-05-07T00:48:01;18.30;40.80
76789;DHT22;65740;52.464;13.446;2023-05-07T00:50:28;18.30;41.40
76789;DHT22;65740;52.464;13.446;2023-05-07T00:52:54;18.30;41.30
76789;DHT22;65740;52.464;13.446;2023-05-07T00:55:22;18.30;40.70
76789;DHT22;65740;52.464;13.446;2023-05-07T00:57:49;18.40;40.80
76789;DHT22;65740;52.464;13.446;2023-05-07T01:00:15;18.40;40.80
76789;DHT22;65740;52.464;13.446;2023-05-07T01:02:42;18.40;40.70
76789;DHT22;65740;52.464;13.446;2023-05-07T01:05:11;18.40;40.60
76789;DHT22;65740;52.464;13.446;2023-05-07T01:07:39;18.40;40.60
76789;DHT22;65740;52.464;13.446;2023-05-07T01:10:06;18.50;40.60
76789;DHT22;65740;52.464;13.446;2023-05-07T01:12:34;18.50;40.50
76789;DHT22;65740;52.464;13.446;2023-05-07T01:15:01;18.50;40.40
76789;DHT22;65740;52.464;13.446;2023-05-07T01:17:27;18.50;40.40
76789;DHT22;65740;52.464;13.446;2023-05-07T01:19:53;18.50;40.40
76789;DHT22;65740;52.464;13.446;2023-05-07T01:22:39;18.50;40.40
76789;DHT22;65740;52.464;13.446;2023-05-07T01:25:06;18.50;40.40
76789;DHT22;65740;52.464;13.446;2023-05-07T01:27:32;18.50;40.40
76789;DHT22;65740;52.464;13.446;2023-05-07T01:30:03;18.50;41.10
76789;DHT22;65740;52.464;13.446;2023-05-07T01:32:33;18.50;40.40
76789;DHT22;65740;52.464;13.446;2023-05-07T01:35:02;18.50;40.40
76789;DHT22;65740;52.464;13.446;2023-05-07T01:37:28;18.50;40.40
76789;DHT22;65740;52.464;13.446;2023-05-07T01:39:54;18.50;40.50
76789;DHT22;65740;52.464;13.446;2023-05-07T01:42:21;18.50;40.50
76789;DHT22;65740;52.464;13.446;2023-05-07T01:44:47;18.40;40.50
76789;DHT22;65740;52.464;13.446;2023-05-07T01:47:13;18.40;40.50
76789;DHT22;65740;52.464;13.446;2023-05-07T01:49:40;18.40;40.60
76789;DHT22;65740;52.464;13.446;2023-05-07T01:52:06;18.40;40.60
76789;DHT22;65740;52.464;13.446;2023-05-07T01:54:31;18.40;40.70
76789;DHT22;65740;52.464;13.446;2023-05-07T01:56:57;18.40;40.70
76789;DHT22;65740;52.464;13.446;2023-05-07T01:59:22;18.40;41.30
76789;DHT22;65740;52.464;13.446;2023-05-07T02:01:48;18.30;40.60
76789;DHT22;65740;52.464;13.446;2023-05-07T02:04:14;18.30;40.70
76789;DHT22;65740;52.464;13.446;2023-05-07T02:06:40;18.30;40.70
76789;DHT22;65740;52.464;13.446;2023-05-07T02:09:05;18.30;40.70
76789;DHT22;65740;52.464;13.446;2023-05-07T02:11:31;18.30;40.70
76789;DHT22;65740;52.464;13.446;2023-05-07T02:13:56;18.30;40.70
76789;DHT22;65740;52.464;13.446;2023-05-07T02:16:22;18.30;40.70
76789;DHT22;65740;52.464;13.446;2023-05-07T02:18:49;18.30;41.30
76789;DHT22;65740;52.464;13.446;2023-05-07T02:21:15;18.30;40.70
76789;DHT22;65740;52.464;13.446;2023-05-07T02:23:40;18.30;40.70
76789;DHT22;65740;52.464;13.446;2023-05-07T02:26:06;18.30;40.70
76789;DHT22;65740;52.464;13.446;2023-05-07T02:28:31;18.30;40.70
76789;DHT22;65740;52.464;13.446;2023-05-07T02:30:57;18.30;41.30
76789;DHT22;65740;52.464;13.446;2023-05-07T02:33:25;18.30;40.70
76789;DHT22;65740;52.464;13.446;2023-05-07T02:35:50;18.30;40.70
76789;DHT22;65740;52.464;13.446;2023-05-07T02:38:17;18.30;40.70
76789;DHT22;65740;52.464;13.446;2023-05-07T02:40:43;18.30;40.70
76789;DHT22;65740;52.464;13.446;2023-05-07T02:43:09;18.30;40.70
76789;DHT22;65740;52.464;13.446;2023-05-07T02:45:34;18.30;40.70
76789;DHT22;65740;52.464;13.446;2023-05-07T02:48:00;18.30;40.60
76789;DHT22;65740;52.464;13.446;2023-05-07T02:50:25;18.30;40.60
76789;DHT22;65740;52.464;13.446;2023-05-07T02:52:52;18.30;40.60
76789;DHT22;65740;52.464;13.446;2023-05-07T02:55:18;18.30;40.50
76789;DHT22;65740;52.464;13.446;2023-05-07T02:57:44;18.30;40.40
76789;DHT22;65740;52.464;13.446;2023-05-07T03:00:17;18.40;40.50
76789;DHT22;65740;52.464;13.446;2023-05-07T03:02:44;18.40;40.30
76789;DHT22;65740;52.464;13.446;2023-05-07T03:05:10;18.40;40.30
76789;DHT22;65740;52.464;13.446;2023-05-07T03:07:36;18.40;40.30
76789;DHT22;65740;52.464;13.446;2023-05-07T03:10:02;18.40;40.30
76789;DHT22;65740;52.464;13.446;2023-05-07T03:12:28;18.40;40.30
76789;DHT22;65740;52.464;13.446;2023-05-07T03:14:53;18.40;40.30
76789;DHT22;65740;52.464;13.446;2023-05-07T03:17:21;18.40;40.30
76789;DHT22;65740;52.464;13.446;2023-05-07T03:19:46;18.40;40.30
76789;DHT22;65740;52.464;13.446;2023-05-07T03:22:12;18.40;40.40
76789;DHT22;65740;52.464;13.446;2023-05-07T03:24:38;18.40;40.40
76789;DHT22;65740;52.464;13.446;2023-05-07T03:27:03;18.40;40.40
76789;DHT22;65740;52.464;13.446;2023-05-07T03:29:29;18.40;40.40
76789;DHT22;65740;52.464;13.446;2023-05-07T03:31:55;18.40;40.40
76789;DHT22;65740;52.464;13.446;2023-05-07T03:34:20;18.30;40.40
76789;DHT22;65740;52.464;13.446;2023-05-07T03:36:50;18.30;40.40
76789;DHT22;65740;52.464;13.446;2023-05-07T03:39:15;18.30;40.40
76789;DHT22;65740;52.464;13.446;2023-05-07T03:41:41;18.30;40.50
76789;DHT22;65740;52.464;13.446;2023-05-07T03:44:07;18.30;40.40
76789;DHT22;65740;52.464;13.446;2023-05-07T03:46:33;18.30;41.10
76789;DHT22;65740;52.464;13.446;2023-05-07T03:48:58;18.30;40.50
76789;DHT22;65740;52.464;13.446;2023-05-07T03:51:24;18.30;40.40
76789;DHT22;65740;52.464;13.446;2023-05-07T03:53:51;18.30;41.20
76789;DHT22;65740;52.464;13.446;2023-05-07T03:56:19;18.30;40.50
76789;DHT22;65740;52.464;13.446;2023-05-07T03:58:47;18.30;40.50
76789;DHT22;65740;52.464;13.446;2023-05-07T04:01:12;18.30;40.50
76789;DHT22;65740;52.464;13.446;2023-05-07T04:03:38;18.30;40.50
76789;DHT22;65740;52.464;13.446;2023-05-07T04:06:03;18.30;40.50
76789;DHT22;65740;52.464;13.446;2023-05-07T04:08:29;18.30;40.50
76789;DHT22;65740;52.464;13.446;2023-05-07T04:10:58;18.30;40.50
76789;DHT22;65740;52.464;13.446;2023-05-07T04:13:25;18.30;41.20
76789;DHT22;65740;52.464;13.446;2023-05-07T04:15:55;18.30;40.40
76789;DHT22;65740;52.464;13.446;2023-05-07T04:18:20;18.30;40.30
76789;DHT22;65740;52.464;13.446;2023-05-07T04:20:47;18.30;41.00
76789;DHT22;65740;52.464;13.446;2023-05-07T04:23:13;18.40;40.30
76789;DHT22;65740;52.464;13.446;2023-05-07T04:25:39;18.40;40.30
76789;DHT22;65740;52.464;13.446;2023-05-07T04:28:04;18.40;40.30
76789;DHT22;65740;52.464;13.446;2023-05-07T04:30:30;18.40;40.30
76789;DHT22;65740;52.464;13.446;2023-05-07T04:32:55;18.40;40.30
76789;DHT22;65740;52.464;13.446;2023-05-07T04:35:22;18.40;40.30
76789;DHT22;65740;52.464;13.446;2023-05-07T04:37:47;18.40;40.20
76789;DHT22;65740;52.464;13.446;2023-05-07T04:40:13;18.40;40.20
76789;DHT22;65740;52.464;13.446;2023-05-07T04:42:39;18.40;40.20
76789;DHT22;65740;52.464;13.446;2023-05-07T04:45:05;18.40;40.20
76789;DHT22;65740;52.464;13.446;2023-05-07T04:47:31;18.40;40.30
76789;DHT22;65740;52.464;13.446;2023-05-07T04:49:57;18.40;40.30
76789;DHT22;65740;52.464;13.446;2023-05-07T04:52:23;18.40;40.30
76789;DHT22;65740;52.464;13.446;2023-05-07T04:54:49;18.30;40.30
76789;DHT22;65740;52.464;13.446;2023-05-07T04:57:14;18.30;40.30
76789;DHT22;65740;52.464;13.446;2023-05-07T04:59:40;18.30;40.40
76789;DHT22;65740;52.464;13.446;2023-05-07T05:02:06;18.30;40.40
76789;DHT22;65740;52.464;13.446;2023-05-07T05:04:31;18.30;40.50
76789;DHT22;65740;52.464;13.446;2023-05-07T05:06:58;18.20;40.40
76789;DHT22;65740;52.464;13.446;2023-05-07T05:09:23;18.20;40.50
76789;DHT22;65740;52.464;13.446;2023-05-07T05:11:49;18.20;40.50
76789;DHT22;65740;52.464;13.446;2023-05-07T05:14:15;18.20;40.60
76789;DHT22;65740;52.464;13.446;2023-05-07T05:16:40;18.20;40.60
76789;DHT22;65740;52.464;13.446;2023-05-07T05:19:06;18.20;40.60
76789;DHT22;65740;52.464;13.446;2023-05-07T05:21:31;18.20;40.60
76789;DHT22;65740;52.464;13.446;2023-05-07T05:23:58;18.20;40.60
76789;DHT22;65740;52.464;13.446;2023-05-07T05:26:23;18.20;40.60
76789;DHT22;65740;52.464;13.446;2023-05-07T05:28:49;18.20;40.60
76789;DHT22;65740;52.464;13.446;2023-05-07T05:31:16;18.20;40.50
76789;DHT22;65740;52.464;13.446;2023-05-07T05:33:41;18.20;40.60
76789;DHT22;65740;52.464;13.446;2023-05-07T05:36:09;18.20;40.50
76789;DHT22;65740;52.464;13.446;2023-05-07T05:38:36;18.20;40.50
76789;DHT22;65740;52.464;13.446;2023-05-07T05:41:01;18.20;40.50
76789;DHT22;65740;52.464;13.446;2023-05-07T05:43:27;18.20;40.50
76789;DHT22;65740;52.464;13.446;2023-05-07T05:45:52;18.20;40.50
76789;DHT22;65740;52.464;13.446;2023-05-07T05:48:18;18.30;40.50
76789;DHT22;65740;52.464;13.446;2023-05-07T05:50:44;18.30;40.50
76789;DHT22;65740;52.464;13.446;2023-05-07T05:53:09;18.30;40.40
76789;DHT22;65740;52.464;13.446;2023-05-07T05:55:35;18.30;40.40
76789;DHT22;65740;52.464;13.446;2023-05-07T05:58:01;18.30;40.30
76789;DHT22;65740;52.464;13.446;2023-05-07T06:00:27;18.30;40.30
76789;DHT22;65740;52.464;13.446;2023-05-07T06:02:52;18.30;40.20
76789;DHT22;65740;52.464;13.446;2023-05-07T06:05:18;18.40;40.30
76789;DHT22;65740;52.464;13.446;2023-05-07T06:07:44;18.40;40.20
76789;DHT22;65740;52.464;13.446;2023-05-07T06:10:10;18.40;40.30
76789;DHT22;65740;52.464;13.446;2023-05-07T06:12:35;18.40;40.20
76789;DHT22;65740;52.464;13.446;2023-05-07T06:15:01;18.40;40.20
76789;DHT22;65740;52.464;13.446;2023-05-07T06:17:27;18.50;40.20
76789;DHT22;65740;52.464;13.446;2023-05-07T06:19:52;18.40;40.20
76789;DHT22;65740;52.464;13.446;2023-05-07T06:22:18;18.50;40.20
76789;DHT22;65740;52.464;13.446;2023-05-07T06:24:44;18.40;40.20
76789;DHT22;65740;52.464;13.446;2023-05-07T06:27:09;18.40;40.20
76789;DHT22;65740;52.464;13.446;2023-05-07T06:29:35;18.40;40.30
76789;DHT22;65740;52.464;13.446;2023-05-07T06:34:33;18.40;40.40
76789;DHT22;65740;52.464;13.446;2023-05-07T06:36:59;18.40;40.50
76789;DHT22;65740;52.464;13.446;2023-05-07T06:39:24;18.30;40.50
76789;DHT22;65740;52.464;13.446;2023-05-07T06:41:50;18.30;40.60
76789;DHT22;65740;52.464;13.446;2023-05-07T06:44:15;18.30;40.60
76789;DHT22;65740;52.464;13.446;2023-05-07T06:46:41;18.20;40.60
76789;DHT22;65740;52.464;13.446;2023-05-07T06:49:07;18.30;40.70
76789;DHT22;65740;52.464;13.446;2023-05-07T06:51:32;18.20;40.60
76789;DHT22;65740;52.464;13.446;2023-05-07T06:53:58;18.20;40.60
76789;DHT22;65740;52.464;13.446;2023-05-07T06:56:23;18.20;40.60
76789;DHT22;65740;52.464;13.446;2023-05-07T06:58:50;18.20;40.60
76789;DHT22;65740;52.464;13.446;2023-05-07T07:01:16;18.20;40.60
76789;DHT22;65740;52.464;13.446;2023-05-07T07:03:41;18.20;40.70
76789;DHT22;65740;52.464;13.446;2023-05-07T07:06:07;18.20;40.60
76789;DHT22;65740;52.464;13.446;2023-05-07T07:08:32;18.20;40.60
76789;DHT22;65740;52.464;13.446;2023-05-07T07:10:58;18.30;40.80
76789;DHT22;65740;52.464;13.446;2023-05-07T07:13:24;18.30;40.70
76789;DHT22;65740;52.464;13.446;2023-05-07T07:15:51;18.30;40.80
76789;DHT22;65740;52.464;13.446;2023-05-07T07:18:16;18.30;40.80
76789;DHT22;65740;52.464;13.446;2023-05-07T07:20:42;18.30;41.40
76789;DHT22;65740;52.464;13.446;2023-05-07T07:23:09;18.30;40.80
76789;DHT22;65740;52.464;13.446;2023-05-07T07:25:35;18.30;40.70
76789;DHT22;65740;52.464;13.446;2023-05-07T07:28:01;18.30;40.70
76789;DHT22;65740;52.464;13.446;2023-05-07T07:30:26;18.30;40.70
76789;DHT22;65740;52.464;13.446;2023-05-07T07:32:52;18.40;40.80
76789;DHT22;65740;52.464;13.446;2023-05-07T07:35:18;18.40;40.80
76789;DHT22;65740;52.464;13.446;2023-05-07T07:37:43;18.40;40.80
76789;DHT22;65740;52.464;13.446;2023-05-07T07:40:10;18.40;40.80
76789;DHT22;65740;52.464;13.446;2023-05-07T07:42:36;18.50;40.70
76789;DHT22;65740;52.464;13.446;2023-05-07T07:45:02;18.50;40.70
76789;DHT22;65740;52.464;13.446;2023-05-07T07:47:28;18.50;40.60
76789;DHT22;65740;52.464;13.446;2023-05-07T07:49:54;18.60;40.70
76789;DHT22;65740;52.464;13.446;2023-05-07T07:52:19;18.50;40.60
76789;DHT22;65740;52.464;13.446;2023-05-07T07:54:45;18.60;40.70
76789;DHT22;65740;52.464;13.446;2023-05-07T07:57:11;18.60;41.40
76789;DHT22;65740;52.464;13.446;2023-05-07T07:59:36;18.60;40.70
76789;DHT22;65740;52.464;13.446;2023-05-07T08:02:02;18.60;40.70
76789;DHT22;65740;52.464;13.446;2023-05-07T08:04:27;18.60;40.70
76789;DHT22;65740;52.464;13.446;2023-05-07T08:06:53;18.60;40.80
76789;DHT22;65740;52.464;13.446;2023-05-07T08:09:19;18.60;40.90
76789;DHT22;65740;52.464;13.446;2023-05-07T08:11:45;18.60;40.90
76789;DHT22;65740;52.464;13.446;2023-05-07T08:14:11;18.60;40.90
76789;DHT22;65740;52.464;13.446;2023-05-07T08:16:37;18.60;40.90
76789;DHT22;65740;52.464;13.446;2023-05-07T08:19:02;18.50;41.00
76789;DHT22;65740;52.464;13.446;2023-05-07T08:21:28;18.50;41.10
76789;DHT22;65740;52.464;13.446;2023-05-07T08:23:54;18.50;41.20
76789;DHT22;65740;52.464;13.446;2023-05-07T08:26:19;18.50;41.20
76789;DHT22;65740;52.464;13.446;2023-05-07T08:28:45;18.40;41.20
76789;DHT22;65740;52.464;13.446;2023-05-07T08:31:11;18.40;41.30
76789;DHT22;65740;52.464;13.446;2023-05-07T08:33:36;18.40;41.30
76789;DHT22;65740;52.464;13.446;2023-05-07T08:36:04;18.40;41.30
76789;DHT22;65740;52.464;13.446;2023-05-07T08:38:29;18.40;41.30
76789;DHT22;65740;52.464;13.446;2023-05-07T08:40:55;18.40;41.40
76789;DHT22;65740;52.464;13.446;2023-05-07T08:43:21;18.40;41.40
76789;DHT22;65740;52.464;13.446;2023-05-07T08:45:49;18.40;41.40
76789;DHT22;65740;52.464;13.446;2023-05-07T08:48:17;18.40;41.40
76789;DHT22;65740;52.464;13.446;2023-05-07T08:50:43;18.50;41.50
76789;DHT22;65740;52.464;13.446;2023-05-07T08:53:08;18.50;41.50
76789;DHT22;65740;52.464;13.446;2023-05-07T08:55:34;18.50;41.50
76789;DHT22;65740;52.464;13.446;2023-05-07T08:58:00;18.50;41.50
76789;DHT22;65740;52.464;13.446;2023-05-07T09:00:26;18.50;41.50
76789;DHT22;65740;52.464;13.446;2023-05-07T09:02:53;18.60;41.60
76789;DHT22;65740;52.464;13.446;2023-05-07T09:05:19;18.60;41.50
76789;DHT22;65740;52.464;13.446;2023-05-07T09:07:45;18.60;41.50
76789;DHT22;65740;52.464;13.446;2023-05-07T09:10:12;18.60;41.50
76789;DHT22;65740;52.464;13.446;2023-05-07T09:12:38;18.70;41.50
76789;DHT22;65740;52.464;13.446;2023-05-07T09:15:05;18.70;41.50
76789;DHT22;65740;52.464;13.446;2023-05-07T09:17:31;18.70;41.60
76789;DHT22;65740;52.464;13.446;2023-05-07T09:19:56;18.70;41.50
76789;DHT22;65740;52.464;13.446;2023-05-07T09:22:26;18.70;41.40
76789;DHT22;65740;52.464;13.446;2023-05-07T09:24:52;18.80;41.50
76789;DHT22;65740;52.464;13.446;2023-05-07T09:27:18;18.80;41.40
76789;DHT22;65740;52.464;13.446;2023-05-07T09:29:44;18.80;41.40
76789;DHT22;65740;52.464;13.446;2023-05-07T09:32:10;18.90;41.40
76789;DHT22;65740;52.464;13.446;2023-05-07T09:34:36;18.90;41.50
76789;DHT22;65740;52.464;13.446;2023-05-07T09:37:02;18.90;41.40
76789;DHT22;65740;52.464;13.446;2023-05-07T09:39:46;18.90;41.40
76789;DHT22;65740;52.464;13.446;2023-05-07T09:42:12;18.90;41.40
76789;DHT22;65740;52.464;13.446;2023-05-07T09:44:40;19.00;41.60
76789;DHT22;65740;52.464;13.446;2023-05-07T09:47:07;19.00;41.60
76789;DHT22;65740;52.464;13.446;2023-05-07T09:49:36;18.90;41.60
76789;DHT22;65740;52.464;13.446;2023-05-07T09:52:04;19.00;41.70
76789;DHT22;65740;52.464;13.446;2023-05-07T09:54:33;18.90;41.70
76789;DHT22;65740;52.464;13.446;2023-05-07T09:57:01;18.90;41.80
76789;DHT22;65740;52.464;13.446;2023-05-07T09:59:28;18.90;41.80
76789;DHT22;65740;52.464;13.446;2023-05-07T10:01:57;19.00;42.00
76789;DHT22;65740;52.464;13.446;2023-05-07T10:04:27;18.90;41.90
76789;DHT22;65740;52.464;13.446;2023-05-07T10:06:53;19.00;42.10
76789;DHT22;65740;52.464;13.446;2023-05-07T10:09:20;18.90;42.00
76789;DHT22;65740;52.464;13.446;2023-05-07T10:11:48;19.00;42.20
76789;DHT22;65740;52.464;13.446;2023-05-07T10:14:14;19.00;42.70
76789;DHT22;65740;52.464;13.446;2023-05-07T10:16:41;19.00;42.30
76789;DHT22;65740;52.464;13.446;2023-05-07T10:19:08;19.00;42.40
76789;DHT22;65740;52.464;13.446;2023-05-07T10:21:38;19.00;42.40
76789;DHT22;65740;52.464;13.446;2023-05-07T10:24:12;19.00;42.50
76789;DHT22;65740;52.464;13.446;2023-05-07T10:26:44;19.00;42.50
76789;DHT22;65740;52.464;13.446;2023-05-07T10:29:33;19.00;42.50
76789;DHT22;65740;52.464;13.446;2023-05-07T10:32:26;19.00;42.60
76789;DHT22;65740;52.464;13.446;2023-05-07T10:34:56;19.00;42.60
76789;DHT22;65740;52.464;13.446;2023-05-07T10:37:24;18.90;42.70
76789;DHT22;65740;52.464;13.446;2023-05-07T10:39:50;19.00;42.90
76789;DHT22;65740;52.464;13.446;2023-05-07T10:42:16;19.00;42.90
76789;DHT22;65740;52.464;13.446;2023-05-07T10:44:42;19.00;42.90
76789;DHT22;65740;52.464;13.446;2023-05-07T10:47:12;19.00;43.00
76789;DHT22;65740;52.464;13.446;2023-05-07T10:52:21;19.00;43.20
76789;DHT22;65740;52.464;13.446;2023-05-07T10:57:44;19.00;43.10
76789;DHT22;65740;52.464;13.446;2023-05-07T11:05:25;19.00;43.20
76789;DHT22;65740;52.464;13.446;2023-05-07T11:07:58;19.10;43.40
76789;DHT22;65740;52.464;13.446;2023-05-07T11:13:15;19.10;43.50
76789;DHT22;65740;52.464;13.446;2023-05-07T11:15:44;19.10;43.40
76789;DHT22;65740;52.464;13.446;2023-05-07T11:18:11;19.10;43.40
76789;DHT22;65740;52.464;13.446;2023-05-07T11:20:58;19.20;43.70
76789;DHT22;65740;52.464;13.446;2023-05-07T11:26:09;19.20;43.60
76789;DHT22;65740;52.464;13.446;2023-05-07T11:28:42;19.30;43.60
76789;DHT22;65740;52.464;13.446;2023-05-07T11:31:09;19.30;43.70
76789;DHT22;65740;52.464;13.446;2023-05-07T11:33:36;19.30;43.70
76789;DHT22;65740;52.464;13.446;2023-05-07T11:36:03;19.30;43.60
76789;DHT22;65740;52.464;13.446;2023-05-07T11:38:30;19.30;43.60
76789;DHT22;65740;52.464;13.446;2023-05-07T11:40:58;19.40;43.70
76789;DHT22;65740;52.464;13.446;2023-05-07T11:43:26;19.40;43.60
76789;DHT22;65740;52.464;13.446;2023-05-07T11:45:51;19.50;44.00
76789;DHT22;65740;52.464;13.446;2023-05-07T11:48:17;19.50;43.90
76789;DHT22;65740;52.464;13.446;2023-05-07T11:51:01;19.50;44.00
76789;DHT22;65740;52.464;13.446;2023-05-07T11:53:40;19.50;43.90
76789;DHT22;65740;52.464;13.446;2023-05-07T11:56:11;19.50;44.10
76789;DHT22;65740;52.464;13.446;2023-05-07T11:58:37;19.50;44.30
76789;DHT22;65740;52.464;13.446;2023-05-07T12:01:03;19.50;44.10
76789;DHT22;65740;52.464;13.446;2023-05-07T12:03:29;19.50;44.30
76789;DHT22;65740;52.464;13.446;2023-05-07T12:05:55;19.50;44.20
76789;DHT22;65740;52.464;13.446;2023-05-07T12:08:21;19.50;44.20
76789;DHT22;65740;52.464;13.446;2023-05-07T12:10:50;19.50;45.10
76789;DHT22;65740;52.464;13.446;2023-05-07T12:13:24;19.50;44.50
76789;DHT22;65740;52.464;13.446;2023-05-07T12:15:51;19.60;44.40
76789;DHT22;65740;52.464;13.446;2023-05-07T12:18:17;19.50;43.80
76789;DHT22;65740;52.464;13.446;2023-05-07T12:23:18;19.50;43.40
76789;DHT22;65740;52.464;13.446;2023-05-07T12:25:44;19.50;43.60
76789;DHT22;65740;52.464;13.446;2023-05-07T12:28:17;19.50;43.70
76789;DHT22;65740;52.464;13.446;2023-05-07T12:30:44;19.50;43.70
76789;DHT22;65740;52.464;13.446;2023-05-07T12:33:11;19.40;43.80
76789;DHT22;65740;52.464;13.446;2023-05-07T12:35:41;19.50;43.50
76789;DHT22;65740;52.464;13.446;2023-05-07T12:38:12;19.50;43.60
76789;DHT22;65740;52.464;13.446;2023-05-07T12:40:48;19.50;42.70
76789;DHT22;65740;52.464;13.446;2023-05-07T12:43:26;19.50;43.30
76789;DHT22;65740;52.464;13.446;2023-05-07T12:45:57;19.50;42.50
76789;DHT22;65740;52.464;13.446;2023-05-07T12:48:23;19.50;43.00
76789;DHT22;65740;52.464;13.446;2023-05-07T12:50:53;19.50;42.50
76789;DHT22;65740;52.464;13.446;2023-05-07T12:53:21;19.50;41.90
76789;DHT22;65740;52.464;13.446;2023-05-07T12:55:49;19.60;42.50
76789;DHT22;65740;52.464;13.446;2023-05-07T12:58:17;19.50;42.10
76789;DHT22;65740;52.464;13.446;2023-05-07T13:00:44;19.60;42.10
76789;DHT22;65740;52.464;13.446;2023-05-07T13:03:10;19.60;41.60
76789;DHT22;65740;52.464;13.446;2023-05-07T13:05:36;19.60;42.10
76789;DHT22;65740;52.464;13.446;2023-05-07T13:08:01;19.60;42.00
76789;DHT22;65740;52.464;13.446;2023-05-07T13:10:28;19.60;42.20
76789;DHT22;65740;52.464;13.446;2023-05-07T13:12:54;19.60;42.40
76789;DHT22;65740;52.464;13.446;2023-05-07T13:15:20;19.60;43.50
76789;DHT22;65740;52.464;13.446;2023-05-07T13:17:46;19.60;42.50
76789;DHT22;65740;52.464;13.446;2023-05-07T13:20:12;19.60;42.70
76789;DHT22;65740;52.464;13.446;2023-05-07T13:22:39;19.70;42.60
76789;DHT22;65740;52.464;13.446;2023-05-07T13:25:05;19.70;42.90
76789;DHT22;65740;52.464;13.446;2023-05-07T13:27:31;19.70;43.00
76789;DHT22;65740;52.464;13.446;2023-05-07T13:29:57;19.70;42.90
76789;DHT22;65740;52.464;13.446;2023-05-07T13:32:23;19.70;43.00
76789;DHT22;65740;52.464;13.446;2023-05-07T13:34:48;19.80;43.10
76789;DHT22;65740;52.464;13.446;2023-05-07T13:37:14;19.80;43.00
76789;DHT22;65740;52.464;13.446;2023-05-07T13:39:39;19.80;43.30
76789;DHT22;65740;52.464;13.446;2023-05-07T13:42:06;19.80;43.20
76789;DHT22;65740;52.464;13.446;2023-05-07T13:44:32;19.80;43.10
76789;DHT22;65740;52.464;13.446;2023-05-07T13:46:57;19.80;43.20
76789;DHT22;65740;52.464;13.446;2023-05-07T13:49:23;19.80;43.20
76789;DHT22;65740;52.464;13.446;2023-05-07T13:51:49;19.90;43.40
76789;DHT22;65740;52.464;13.446;2023-05-07T13:54:15;19.80;43.10
76789;DHT22;65740;52.464;13.446;2023-05-07T13:56:41;19.90;43.30
76789;DHT22;65740;52.464;13.446;2023-05-07T13:59:07;19.80;42.70
76789;DHT22;65740;52.464;13.446;2023-05-07T14:01:32;19.80;41.90
76789;DHT22;65740;52.464;13.446;2023-05-07T14:03:58;19.70;41.00
76789;DHT22;65740;52.464;13.446;2023-05-07T14:06:24;19.70;41.00
76789;DHT22;65740;52.464;13.446;2023-05-07T14:08:50;19.70;41.50
76789;DHT22;65740;52.464;13.446;2023-05-07T14:11:16;19.70;41.20
76789;DHT22;65740;52.464;13.446;2023-05-07T14:13:41;19.70;41.30
76789;DHT22;65740;52.464;13.446;2023-05-07T14:16:07;19.70;41.90
76789;DHT22;65740;52.464;13.446;2023-05-07T14:18:33;19.80;42.00
76789;DHT22;65740;52.464;13.446;2023-05-07T14:20:59;19.80;42.10
76789;DHT22;65740;52.464;13.446;2023-05-07T14:23:25;19.80;42.20
76789;DHT22;65740;52.464;13.446;2023-05-07T14:25:52;19.80;42.40
76789;DHT22;65740;52.464;13.446;2023-05-07T14:28:18;19.80;42.60
76789;DHT22;65740;52.464;13.446;2023-05-07T14:30:44;19.80;42.70
76789;DHT22;65740;52.464;13.446;2023-05-07T14:33:10;19.80;43.30
76789;DHT22;65740;52.464;13.446;2023-05-07T14:35:37;19.80;42.50
76789;DHT22;65740;52.464;13.446;2023-05-07T14:38:02;19.80;41.60
76789;DHT22;65740;52.464;13.446;2023-05-07T14:40:28;19.80;42.00
76789;DHT22;65740;52.464;13.446;2023-05-07T14:42:53;19.80;42.20
76789;DHT22;65740;52.464;13.446;2023-05-07T14:45:21;19.80;42.30
76789;DHT22;65740;52.464;13.446;2023-05-07T14:47:46;19.90;42.60
76789;DHT22;65740;52.464;13.446;2023-05-07T14:50:12;19.90;42.90
76789;DHT22;65740;52.464;13.446;2023-05-07T14:52:37;19.90;42.40
76789;DHT22;65740;52.464;13.446;2023-05-07T14:55:04;19.90;42.60
76789;DHT22;65740;52.464;13.446;2023-05-07T14:57:30;19.90;42.60
76789;DHT22;65740;52.464;13.446;2023-05-07T15:00:00;19.90;42.80
76789;DHT22;65740;52.464;13.446;2023-05-07T15:02:26;19.90;43.00
76789;DHT22;65740;52.464;13.446;2023-05-07T15:04:51;19.90;42.50
76789;DHT22;65740;52.464;13.446;2023-05-07T15:07:17;19.90;42.60
76789;DHT22;65740;52.464;13.446;2023-05-07T15:09:43;19.90;42.50
76789;DHT22;65740;52.464;13.446;2023-05-07T15:12:09;19.90;42.60
76789;DHT22;65740;52.464;13.446;2023-05-07T15:14:35;19.90;42.50
76789;DHT22;65740;52.464;13.446;2023-05-07T15:17:01;19.90;42.80
76789;DHT22;65740;52.464;13.446;2023-05-07T15:19:26;19.90;42.80
76789;DHT22;65740;52.464;13.446;2023-05-07T15:21:58;19.90;42.90
76789;DHT22;65740;52.464;13.446;2023-05-07T15:24:24;19.90;42.90
76789;DHT22;65740;52.464;13.446;2023-05-07T15:26:51;19.90;42.60
76789;DHT22;65740;52.464;13.446;2023-05-07T15:29:17;19.90;42.80
76789;DHT22;65740;52.464;13.446;2023-05-07T15:31:43;19.90;41.70
76789;DHT22;65740;52.464;13.446;2023-05-07T15:34:09;19.90;40.90